Time;durP1;ratioP1;P1;durP2;ratioP2;P2;SDS_P1;SDS_P2;PMS_P1;PMS_P2;Temp;Humidity;BMP_temperature;BMP_pressure;BME280_temperature;BME280_humidity;BME280_pressure;Samples;Min_cycle;Max_cycle;Signal;HPM_P1;HPM_P2
2021/11/25 00:00:26;;;;;;;3.67;2.53;;;11.60;96.70;;;;;;4870299;29;20507;-79
2021/11/25 00:02:55;;;;;;;3.90;2.50;;;11.50;96.70;;;;;;4871324;29;20064;-78
2021/11/25 00:05:23;;;;;;;4.05;2.80;;;11.40;96.70;;;;;;4871278;29;20469;-78
2021/11/25 00:07:52;;;;;;;4.90;2.83;;;11.40;96.70;;;;;;4889781;29;20040;-79
2021/11/25 00:10:20;;;;;;;5.00;2.60;;;11.40;96.70;;;;;;4868593;29;20440;-78
2021/11/25 00:12:52;;;;;;;4.20;2.85;;;11.40;96.70;;;;;;4867390;29;20045;-79
2021/11/25 00:15:20;;;;;;;3.67;2.47;;;11.30;96.70;;;;;;4873157;29;20131;-78
2021/11/25 00:17:49;;;;;;;3.85;2.60;;;11.40;96.70;;;;;;4872060;29;20143;-78
2021/11/25 00:20:20;;;;;;;3.72;2.58;;;11.40;96.70;;;;;;4869635;29;20072;-78
2021/11/25 00:22:48;;;;;;;4.32;2.20;;;11.30;96.70;;;;;;4870866;29;20084;-79
2021/11/25 00:25:17;;;;;;;3.78;2.28;;;11.20;96.70;;;;;;4884446;29;20041;-78
2021/11/25 00:27:45;;;;;;;3.88;2.50;;;11.10;96.70;;;;;;4871479;29;20048;-79
2021/11/25 00:30:14;;;;;;;3.58;2.53;;;11.10;96.70;;;;;;4885400;29;20055;-78
2021/11/25 00:32:43;;;;;;;2.78;2.38;;;11.10;96.70;;;;;;4873195;29;20099;-79
2021/11/25 00:35:12;;;;;;;2.85;2.20;;;11.10;96.70;;;;;;4873523;29;20068;-78
2021/11/25 00:37:41;;;;;;;3.83;3.00;;;11.10;96.70;;;;;;4875553;29;20136;-77
2021/11/25 00:40:13;;;;;;;3.10;2.28;;;11.20;96.70;;;;;;4872572;29;20123;-78
2021/11/25 00:42:41;;;;;;;6.47;3.00;;;11.20;96.70;;;;;;4888180;29;20054;-78
2021/11/25 00:45:12;;;;;;;5.32;2.85;;;11.20;96.70;;;;;;4871761;29;20137;-79
2021/11/25 00:47:40;;;;;;;4.80;2.70;;;11.10;96.70;;;;;;4872465;29;20571;-78
2021/11/25 00:50:11;;;;;;;6.55;2.88;;;11.20;96.70;;;;;;4873290;29;20052;-79
2021/11/25 00:52:42;;;;;;;4.93;2.40;;;11.30;96.70;;;;;;4890332;29;20074;-79
2021/11/25 00:55:11;;;;;;;3.83;2.55;;;11.20;96.70;;;;;;4886568;29;20055;-79
2021/11/25 00:57:39;;;;;;;5.97;3.10;;;11.20;96.70;;;;;;4860153;29;20072;-79
2021/11/25 01:00:10;;;;;;;4.00;2.40;;;11.20;96.70;;;;;;4872170;29;20131;-79
2021/11/25 01:02:39;;;;;;;4.50;2.50;;;11.10;96.70;;;;;;4870637;29;20048;-79
2021/11/25 01:05:08;;;;;;;5.75;3.22;;;11.10;96.70;;;;;;4888760;29;20044;-79
2021/11/25 01:07:37;;;;;;;4.22;2.45;;;11.10;96.70;;;;;;4876912;29;20173;-78
2021/11/25 01:10:09;;;;;;;3.47;2.80;;;11.10;96.70;;;;;;4871198;29;20045;-79
2021/11/25 01:12:40;;;;;;;3.60;2.80;;;11.00;96.70;;;;;;4890026;29;20045;-79
2021/11/25 01:15:10;;;;;;;3.08;2.33;;;11.00;96.70;;;;;;4886316;29;20500;-79
2021/11/25 01:17:39;;;;;;;4.03;2.50;;;11.10;96.70;;;;;;4879650;29;20044;-78
2021/11/25 01:20:11;;;;;;;5.10;2.65;;;11.10;96.70;;;;;;4871603;29;20045;-78
2021/11/25 01:22:41;;;;;;;4.10;2.80;;;11.10;96.70;;;;;;4874821;29;20049;-79
2021/11/25 01:25:11;;;;;;;3.38;2.65;;;11.00;96.70;;;;;;4887533;29;20136;-79
2021/11/25 01:27:39;;;;;;;3.85;2.75;;;11.00;96.70;;;;;;4883177;29;20040;-78
2021/11/25 01:30:09;;;;;;;3.63;2.67;;;11.10;96.70;;;;;;4889852;29;20067;-79
2021/11/25 01:32:38;;;;;;;3.80;2.72;;;11.10;96.70;;;;;;4872907;29;20076;-79
2021/11/25 01:35:07;;;;;;;3.22;2.53;;;11.00;96.70;;;;;;4888103;29;20336;-79
2021/11/25 01:37:36;;;;;;;3.65;2.53;;;11.00;96.70;;;;;;4888959;29;20070;-78
2021/11/25 01:40:06;;;;;;;5.53;2.80;;;10.90;96.70;;;;;;4868942;29;20040;-79
2021/11/25 01:42:40;;;;;;;4.05;2.97;;;10.90;96.70;;;;;;4888625;29;20045;-79
2021/11/25 01:45:10;;;;;;;3.67;2.60;;;10.90;96.70;;;;;;4889216;29;20168;-79
2021/11/25 01:47:42;;;;;;;5.72;3.05;;;10.90;96.70;;;;;;4889579;29;20131;-76
2021/11/25 01:50:11;;;;;;;4.50;2.38;;;11.00;96.70;;;;;;4859286;29;20143;-76
2021/11/25 01:52:39;;;;;;;4.63;2.78;;;11.00;96.70;;;;;;4883328;29;20036;-76
2021/11/25 01:55:08;;;;;;;4.63;2.50;;;11.00;96.70;;;;;;4874851;29;20115;-77
2021/11/25 01:57:36;;;;;;;6.82;2.50;;;11.00;96.70;;;;;;4872109;29;20128;-77
2021/11/25 02:00:10;;;;;;;3.72;2.67;;;11.00;96.70;;;;;;4873739;29;20057;-77
2021/11/25 02:02:39;;;;;;;5.05;2.60;;;10.90;96.70;;;;;;4885022;29;20056;-77
2021/11/25 02:05:07;;;;;;;3.85;2.22;;;10.90;96.70;;;;;;4890447;29;20120;-76
2021/11/25 02:07:36;;;;;;;3.40;2.30;;;10.90;96.70;;;;;;4891012;29;20044;-77
2021/11/25 02:10:06;;;;;;;3.50;2.45;;;10.90;96.70;;;;;;4873520;29;20848;-77
2021/11/25 02:12:38;;;;;;;4.40;2.72;;;11.00;96.70;;;;;;4891640;29;20032;-79
2021/11/25 02:15:10;;;;;;;4.00;2.50;;;11.00;96.70;;;;;;4890330;29;20116;-79
2021/11/25 02:17:38;;;;;;;3.47;2.17;;;11.00;96.70;;;;;;4892462;29;20040;-79
2021/11/25 02:20:09;;;;;;;2.90;2.17;;;11.00;96.70;;;;;;4888802;29;20463;-79
2021/11/25 02:22:40;;;;;;;3.88;2.50;;;11.00;96.70;;;;;;4863925;29;20048;-77
2021/11/25 02:25:12;;;;;;;4.22;2.30;;;11.00;96.70;;;;;;4861620;29;20055;-77
2021/11/25 02:27:44;;;;;;;4.88;2.90;;;11.10;96.70;;;;;;4887949;29;20052;-76
2021/11/25 02:30:14;;;;;;;3.70;2.50;;;11.10;96.70;;;;;;4888467;29;20056;-77
2021/11/25 02:32:45;;;;;;;3.70;2.47;;;11.10;96.70;;;;;;4890757;29;20040;-77
2021/11/25 02:35:16;;;;;;;3.35;2.75;;;11.20;96.70;;;;;;4888703;29;20155;-76
2021/11/25 02:37:47;;;;;;;4.80;2.50;;;11.20;96.70;;;;;;4890026;29;20047;-76
2021/11/25 02:40:18;;;;;;;3.63;2.40;;;11.30;96.70;;;;;;4882936;29;20047;-77
2021/11/25 02:42:49;;;;;;;5.05;2.83;;;11.30;96.70;;;;;;4869888;29;20072;-76
2021/11/25 02:45:19;;;;;;;4.25;2.90;;;11.30;96.70;;;;;;4886315;29;20128;-77
2021/11/25 02:47:47;;;;;;;5.45;2.97;;;11.20;96.70;;;;;;4872183;29;20201;-77
2021/11/25 02:50:16;;;;;;;3.17;2.17;;;11.20;96.70;;;;;;4871348;29;20443;-77
2021/11/25 02:52:46;;;;;;;3.75;2.42;;;11.20;96.70;;;;;;4866914;29;20159;-76
2021/11/25 02:55:16;;;;;;;3.70;2.40;;;11.20;96.70;;;;;;4887838;29;20048;-77
2021/11/25 02:57:45;;;;;;;4.35;2.67;;;11.20;96.70;;;;;;4885027;29;20152;-77
2021/11/25 03:00:31;;;;;;;4.13;2.50;;;11.20;96.70;;;;;;4868514;29;20050;-79
2021/11/25 03:03:03;;;;;;;5.70;3.00;;;11.00;96.70;;;;;;4871417;29;20044;-79
2021/11/25 03:05:32;;;;;;;3.75;2.55;;;10.90;96.70;;;;;;4872084;29;20053;-80
2021/11/25 03:08:04;;;;;;;3.92;2.75;;;10.90;96.70;;;;;;4872707;29;20063;-79
2021/11/25 03:10:35;;;;;;;5.90;3.03;;;10.80;96.70;;;;;;4857293;29;20312;-80
2021/11/25 03:13:05;;;;;;;5.40;3.38;;;10.90;96.70;;;;;;4872958;29;20056;-79
2021/11/25 03:15:34;;;;;;;4.35;2.53;;;11.00;96.70;;;;;;4872039;29;20045;-79
2021/11/25 03:18:03;;;;;;;5.68;2.92;;;11.00;96.70;;;;;;4892505;29;20384;-80
2021/11/25 03:20:31;;;;;;;3.72;2.65;;;10.90;96.70;;;;;;4891198;29;20103;-79
2021/11/25 03:23:01;;;;;;;3.63;2.60;;;10.90;96.70;;;;;;4867418;29;20558;-79
2021/11/25 03:25:30;;;;;;;4.13;2.70;;;10.90;96.70;;;;;;4874060;29;20456;-79
2021/11/25 03:27:58;;;;;;;5.93;3.15;;;11.00;96.70;;;;;;4872125;29;20049;-80
2021/11/25 03:30:26;;;;;;;4.13;2.90;;;11.00;96.70;;;;;;4871610;29;20507;-78
2021/11/25 03:32:54;;;;;;;4.53;2.85;;;10.90;96.70;;;;;;4871547;29;20195;-79
2021/11/25 03:35:23;;;;;;;5.50;3.20;;;11.00;96.70;;;;;;4888463;29;20040;-79
2021/11/25 03:37:51;;;;;;;4.13;2.88;;;11.00;96.70;;;;;;4885597;29;20515;-79
2021/11/25 03:40:21;;;;;;;4.22;2.55;;;11.00;96.70;;;;;;4888189;29;20097;-79
2021/11/25 03:42:49;;;;;;;3.10;2.35;;;10.90;96.70;;;;;;4873692;29;20060;-79
2021/11/25 03:45:17;;;;;;;3.13;2.47;;;10.90;96.70;;;;;;4890690;29;20503;-79
2021/11/25 03:47:45;;;;;;;4.60;2.22;;;10.90;96.70;;;;;;4887756;29;20044;-77
2021/11/25 03:50:14;;;;;;;3.53;2.58;;;10.90;96.70;;;;;;4872145;29;20419;-77
2021/11/25 03:52:43;;;;;;;2.97;2.50;;;10.80;96.70;;;;;;4872540;29;20460;-79
2021/11/25 03:55:13;;;;;;;3.58;2.80;;;10.70;96.70;;;;;;4890394;29;20491;-79
2021/11/25 03:57:42;;;;;;;5.00;2.70;;;10.80;96.70;;;;;;4870089;29;20056;-79
2021/11/25 04:00:15;;;;;;;3.15;2.63;;;10.80;96.70;;;;;;4888247;29;20044;-79
2021/11/25 04:02:45;;;;;;;3.45;2.80;;;10.70;96.70;;;;;;4871002;29;20405;-79
2021/11/25 04:05:15;;;;;;;5.53;3.17;;;10.60;96.70;;;;;;4890209;29;20056;-80
2021/11/25 04:07:43;;;;;;;5.25;3.05;;;10.70;96.70;;;;;;4865626;29;20500;-80
2021/11/25 04:10:12;;;;;;;4.55;2.80;;;10.70;96.70;;;;;;4892557;29;20057;-80
2021/11/25 04:12:42;;;;;;;3.80;2.65;;;10.60;96.70;;;;;;4874235;29;20259;-80
2021/11/25 04:15:14;;;;;;;3.30;2.50;;;10.70;96.70;;;;;;4880391;29;20052;-79
2021/11/25 04:17:44;;;;;;;5.60;2.90;;;10.80;96.70;;;;;;4888879;29;20043;-76
2021/11/25 04:20:12;;;;;;;3.53;2.80;;;10.80;96.70;;;;;;4874323;29;20052;-76
2021/11/25 04:22:42;;;;;;;3.63;2.72;;;10.80;96.70;;;;;;4884403;29;20124;-76
2021/11/25 04:25:11;;;;;;;3.63;2.65;;;10.80;96.70;;;;;;4890673;29;20060;-77
2021/11/25 04:27:40;;;;;;;4.55;2.60;;;10.90;96.70;;;;;;4876647;29;20042;-76
2021/11/25 04:35:33;;;;;;;5.25;2.80;;;10.90;96.70;;;;;;4873337;29;20511;-75
2021/11/25 04:38:04;;;;;;;4.80;2.90;;;10.90;96.70;;;;;;4877024;29;20456;-75
2021/11/25 04:40:35;;;;;;;4.00;2.88;;;10.80;96.70;;;;;;4892212;29;20407;-75
2021/11/25 04:43:05;;;;;;;3.47;2.45;;;10.80;96.70;;;;;;4891235;29;20483;-75
2021/11/25 04:45:37;;;;;;;3.65;3.13;;;10.90;96.70;;;;;;4890110;29;20045;-75
2021/11/25 04:48:06;;;;;;;4.38;2.63;;;10.90;96.70;;;;;;4891483;29;20049;-75
2021/11/25 04:50:34;;;;;;;4.15;2.90;;;10.90;96.70;;;;;;4870863;29;20063;-75
2021/11/25 04:53:03;;;;;;;3.78;2.90;;;11.00;96.70;;;;;;4893173;29;20090;-75
2021/11/25 04:55:31;;;;;;;3.70;3.10;;;10.90;96.70;;;;;;4872999;29;20285;-75
2021/11/25 04:58:00;;;;;;;3.97;2.83;;;11.00;96.70;;;;;;4884519;29;20053;-75
2021/11/25 05:00:29;;;;;;;7.75;3.03;;;11.00;96.70;;;;;;4871129;29;20132;-75
2021/11/25 05:02:59;;;;;;;4.45;3.22;;;11.10;96.70;;;;;;4873918;29;20354;-75
2021/11/25 05:05:27;;;;;;;3.95;2.88;;;11.10;96.70;;;;;;4889777;29;20070;-75
2021/11/25 05:07:55;;;;;;;3.70;3.10;;;11.10;96.70;;;;;;4875469;29;20100;-75
2021/11/25 05:10:23;;;;;;;3.75;3.08;;;11.00;96.70;;;;;;4871393;29;20503;-74
2021/11/25 05:12:52;;;;;;;4.85;3.30;;;11.00;96.70;;;;;;4876771;29;20056;-75
2021/11/25 05:15:20;;;;;;;4.05;2.75;;;11.10;96.70;;;;;;4873226;29;20048;-75
2021/11/25 05:17:50;;;;;;;9.40;3.55;;;11.10;96.70;;;;;;4870365;29;20340;-78
2021/11/25 05:20:20;;;;;;;5.22;3.28;;;11.10;96.70;;;;;;4869973;29;20052;-78
2021/11/25 05:22:49;;;;;;;4.80;3.42;;;11.10;96.70;;;;;;4890561;29;20052;-79
2021/11/25 05:25:17;;;;;;;4.90;3.40;;;11.10;96.70;;;;;;4872736;29;20139;-80
2021/11/25 05:27:46;;;;;;;5.53;3.22;;;11.10;96.70;;;;;;4886780;29;20331;-80
2021/11/25 05:30:16;;;;;;;4.47;3.25;;;11.10;96.70;;;;;;4869871;29;20048;-80
2021/11/25 05:32:45;;;;;;;5.63;3.13;;;11.10;96.70;;;;;;4886725;29;20470;-80
2021/11/25 05:35:14;;;;;;;5.50;2.95;;;11.10;96.70;;;;;;4874263;29;20594;-79
2021/11/25 05:37:44;;;;;;;3.67;3.00;;;11.00;96.70;;;;;;4889381;29;20040;-79
2021/11/25 05:40:14;;;;;;;4.47;3.38;;;11.10;96.70;;;;;;4892806;29;20052;-80
2021/11/25 05:42:44;;;;;;;3.47;2.83;;;11.10;96.70;;;;;;4874632;29;20056;-80
2021/11/25 05:45:17;;;;;;;5.00;3.47;;;11.20;96.70;;;;;;4873375;29;20044;-79
2021/11/25 05:47:47;;;;;;;6.30;3.33;;;11.10;96.70;;;;;;4873580;29;20116;-80
2021/11/25 05:50:20;;;;;;;4.43;3.08;;;11.10;96.70;;;;;;4889691;29;20064;-80
2021/11/25 05:52:51;;;;;;;3.90;3.03;;;11.10;96.70;;;;;;4871734;29;20166;-79
2021/11/25 05:55:24;;;;;;;8.45;5.68;;;11.20;96.70;;;;;;4889569;29;20045;-80
2021/11/25 05:57:52;;;;;;;6.35;5.20;;;11.30;96.70;;;;;;4887286;29;20425;-80
2021/11/25 06:00:20;;;;;;;8.95;5.30;;;11.10;96.70;;;;;;4889098;29;20049;-79
2021/11/25 06:02:49;;;;;;;6.95;4.47;;;11.20;96.70;;;;;;4885705;29;20091;-80
2021/11/25 06:05:22;;;;;;;4.68;3.30;;;11.10;96.70;;;;;;4869816;29;20069;-79
2021/11/25 06:07:53;;;;;;;5.72;3.92;;;11.00;96.70;;;;;;4870279;29;20448;-79
2021/11/25 06:10:22;;;;;;;6.32;3.85;;;10.90;96.70;;;;;;4879676;29;20055;-78
2021/11/25 06:12:52;;;;;;;5.95;3.80;;;10.80;96.70;;;;;;4871508;29;20144;-79
2021/11/25 06:15:21;;;;;;;5.22;3.78;;;10.80;96.70;;;;;;4875173;29;20055;-78
2021/11/25 06:17:50;;;;;;;5.47;3.42;;;10.80;96.70;;;;;;4874947;29;20154;-79
2021/11/25 06:20:19;;;;;;;3.75;3.17;;;10.80;96.70;;;;;;4889152;29;20128;-79
2021/11/25 06:22:49;;;;;;;4.75;3.50;;;10.90;96.70;;;;;;4887614;29;20051;-79
2021/11/25 06:25:21;;;;;;;5.03;3.78;;;10.90;96.70;;;;;;4888627;29;20084;-79
2021/11/25 06:27:49;;;;;;;4.97;3.40;;;10.90;96.70;;;;;;4890552;29;20045;-78
2021/11/25 06:30:18;;;;;;;4.32;3.22;;;11.00;96.70;;;;;;4888599;29;20037;-79
2021/11/25 06:32:48;;;;;;;3.83;3.08;;;10.90;96.70;;;;;;4853388;29;20047;-78
2021/11/25 06:35:17;;;;;;;4.00;3.17;;;11.00;96.70;;;;;;4890271;29;20037;-78
2021/11/25 06:37:48;;;;;;;4.35;3.22;;;11.00;96.70;;;;;;4856276;29;20072;-78
2021/11/25 06:40:19;;;;;;;5.55;3.42;;;10.90;96.70;;;;;;4888175;29;20032;-78
2021/11/25 06:42:47;;;;;;;8.48;3.28;;;10.90;96.70;;;;;;4871924;29;20052;-80
2021/11/25 06:45:16;;;;;;;4.15;3.17;;;10.90;96.70;;;;;;4872955;29;20060;-78
2021/11/25 06:47:46;;;;;;;4.35;3.45;;;11.00;96.70;;;;;;4874580;29;20047;-78
2021/11/25 06:50:16;;;;;;;4.22;3.53;;;11.00;96.70;;;;;;4892675;29;20475;-79
2021/11/25 06:52:45;;;;;;;5.45;3.10;;;11.00;96.70;;;;;;4875449;29;20048;-78
2021/11/25 06:55:15;;;;;;;5.50;3.65;;;11.00;96.70;;;;;;4887642;29;20044;-77
2021/11/25 06:57:50;;;;;;;4.63;2.97;;;11.10;96.70;;;;;;4888195;29;20356;-79
2021/11/25 07:00:22;;;;;;;5.10;3.22;;;11.10;96.70;;;;;;4872824;29;20050;-80
2021/11/25 07:02:53;;;;;;;3.85;3.15;;;11.20;96.70;;;;;;4877521;29;20059;-80
2021/11/25 07:05:22;;;;;;;4.35;3.28;;;11.20;96.70;;;;;;4883710;29;20055;-78
2021/11/25 07:07:50;;;;;;;5.28;3.40;;;11.20;96.70;;;;;;4862489;29;20048;-78
2021/11/25 07:10:19;;;;;;;4.07;2.70;;;11.20;96.70;;;;;;4876726;29;20487;-78
2021/11/25 07:12:50;;;;;;;5.07;3.13;;;11.20;96.70;;;;;;4876041;29;20373;-82
2021/11/25 07:15:22;;;;;;;5.18;3.05;;;11.30;96.70;;;;;;4870767;29;20578;-82
2021/11/25 07:17:52;;;;;;;4.35;3.00;;;11.30;96.70;;;;;;4888817;29;20124;-82
2021/11/25 07:20:20;;;;;;;3.75;2.80;;;11.30;96.70;;;;;;4870380;29;20508;-82
2021/11/25 07:22:49;;;;;;;4.10;2.58;;;11.30;96.70;;;;;;4893763;29;20056;-83
2021/11/25 07:25:21;;;;;;;4.55;2.80;;;11.20;96.70;;;;;;4889241;29;20052;-81
2021/11/25 07:27:51;;;;;;;4.10;3.20;;;11.20;96.70;;;;;;4872388;29;20913;-80
2021/11/25 07:30:20;;;;;;;3.38;2.47;;;11.20;96.70;;;;;;4868427;29;20139;-79
2021/11/25 07:32:49;;;;;;;3.15;2.45;;;11.20;96.70;;;;;;4871589;29;20049;-79
2021/11/25 07:35:19;;;;;;;2.88;2.42;;;11.20;96.70;;;;;;4870167;29;20044;-80
2021/11/25 07:37:48;;;;;;;4.75;2.85;;;11.20;96.70;;;;;;4870628;29;20051;-78
2021/11/25 07:40:17;;;;;;;3.90;2.72;;;11.30;96.70;;;;;;4868783;29;20076;-79
2021/11/25 07:42:46;;;;;;;4.13;2.70;;;11.30;96.70;;;;;;4886489;29;20036;-78
2021/11/25 07:45:16;;;;;;;3.72;2.50;;;11.30;96.70;;;;;;4876067;29;20049;-79
2021/11/25 07:47:45;;;;;;;3.15;2.22;;;11.30;96.70;;;;;;4872141;29;20152;-80
2021/11/25 07:50:15;;;;;;;3.75;3.05;;;11.40;96.70;;;;;;4886761;29;20131;-81
2021/11/25 07:52:44;;;;;;;3.95;2.95;;;11.30;96.70;;;;;;4886521;29;20048;-79
2021/11/25 07:55:14;;;;;;;3.47;2.65;;;11.30;96.70;;;;;;4872248;29;20044;-79
2021/11/25 07:57:44;;;;;;;5.28;2.50;;;11.40;96.70;;;;;;4885740;29;20632;-79
2021/11/25 08:00:14;;;;;;;3.60;2.55;;;11.40;96.70;;;;;;4891617;29;20528;-80
2021/11/25 08:02:44;;;;;;;4.57;3.17;;;11.40;96.70;;;;;;4869891;29;20511;-80
2021/11/25 08:05:13;;;;;;;3.85;2.78;;;11.50;96.70;;;;;;4873824;29;20048;-80
2021/11/25 08:07:42;;;;;;;4.72;3.03;;;11.50;96.70;;;;;;4873671;29;20632;-80
2021/11/25 08:10:13;;;;;;;3.72;2.75;;;11.50;96.70;;;;;;4887801;29;20044;-80
2021/11/25 08:12:42;;;;;;;3.00;2.38;;;11.50;96.70;;;;;;4886417;29;20136;-79
2021/11/25 08:15:11;;;;;;;3.47;2.63;;;11.50;96.70;;;;;;4869639;29;20056;-80
2021/11/25 08:17:40;;;;;;;4.82;2.65;;;11.50;96.70;;;;;;4871551;29;20060;-81
2021/11/25 08:20:12;;;;;;;3.35;2.90;;;11.40;96.70;;;;;;4855145;29;20507;-80
2021/11/25 08:22:40;;;;;;;4.53;2.58;;;11.50;96.70;;;;;;4871889;29;20547;-80
2021/11/25 08:25:09;;;;;;;3.88;2.97;;;11.50;96.70;;;;;;4871715;29;20720;-79
2021/11/25 08:27:38;;;;;;;5.65;2.90;;;11.60;96.70;;;;;;4869953;29;20058;-80
2021/11/25 08:30:11;;;;;;;3.83;2.72;;;11.70;96.70;;;;;;4867544;29;20044;-79
2021/11/25 08:32:40;;;;;;;3.92;2.67;;;11.70;96.70;;;;;;4868413;29;20136;-80
2021/11/25 08:35:11;;;;;;;3.28;2.58;;;11.70;96.70;;;;;;4861856;29;20039;-79
2021/11/25 08:37:42;;;;;;;3.72;2.92;;;11.80;96.70;;;;;;4887853;29;20124;-80
2021/11/25 08:40:13;;;;;;;3.10;2.50;;;11.80;96.70;;;;;;4855364;29;20047;-80
2021/11/25 08:42:42;;;;;;;4.07;2.47;;;11.80;96.70;;;;;;4871636;29;20236;-80
2021/11/25 08:45:11;;;;;;;3.05;2.60;;;11.90;96.70;;;;;;4872096;29;20518;-81
2021/11/25 08:47:40;;;;;;;3.60;2.85;;;11.90;96.70;;;;;;4888665;29;20052;-79
2021/11/25 08:50:12;;;;;;;3.25;2.75;;;11.90;96.70;;;;;;4875905;29;20053;-81
2021/11/25 08:52:40;;;;;;;3.80;2.92;;;12.00;96.70;;;;;;4872530;29;20048;-81
2021/11/25 08:55:10;;;;;;;4.47;2.67;;;12.00;96.70;;;;;;4892156;29;20075;-81
2021/11/25 08:57:39;;;;;;;2.67;2.08;;;12.00;96.70;;;;;;4895176;29;20052;-79
2021/11/25 09:00:10;;;;;;;3.80;2.55;;;12.10;96.70;;;;;;4859172;29;20044;-79
2021/11/25 09:02:39;;;;;;;4.75;3.15;;;12.10;96.70;;;;;;4876862;29;20062;-80
2021/11/25 09:05:11;;;;;;;5.45;3.00;;;12.20;96.70;;;;;;4872605;29;20495;-81
2021/11/25 09:07:40;;;;;;;5.00;3.00;;;12.10;96.70;;;;;;4892172;29;20457;-81
2021/11/25 09:10:09;;;;;;;3.70;3.03;;;12.10;96.70;;;;;;4887714;29;20063;-81
2021/11/25 09:12:38;;;;;;;3.95;2.60;;;12.10;96.70;;;;;;4888358;29;20057;-80
2021/11/25 09:15:23;;;;;;;4.80;2.70;;;12.10;96.70;;;;;;4856526;29;20503;-80
2021/11/25 09:17:51;;;;;;;3.88;2.83;;;12.10;96.70;;;;;;4892472;29;20048;-80
2021/11/25 09:20:30;;;;;;;4.88;3.13;;;12.10;96.70;;;;;;4880429;29;20037;-81
2021/11/25 09:23:00;;;;;;;3.97;2.83;;;12.10;96.70;;;;;;4891357;29;20132;-80
2021/11/25 09:25:29;;;;;;;3.72;2.65;;;12.10;96.70;;;;;;4887661;29;20288;-80
2021/11/25 09:27:58;;;;;;;3.30;2.47;;;12.10;96.70;;;;;;4865815;29;20049;-81
2021/11/25 09:30:28;;;;;;;4.45;3.30;;;12.20;96.70;;;;;;4874967;29;20078;-78
2021/11/25 09:32:57;;;;;;;4.03;2.75;;;12.20;96.70;;;;;;4888828;29;20052;-78
2021/11/25 09:35:27;;;;;;;4.68;2.88;;;12.20;96.70;;;;;;4871685;29;20148;-78
2021/11/25 09:37:56;;;;;;;4.43;2.95;;;12.20;96.70;;;;;;4871142;29;20499;-78
2021/11/25 09:40:27;;;;;;;4.03;3.38;;;12.30;96.70;;;;;;4884204;29;20076;-79
2021/11/25 09:42:59;;;;;;;4.28;3.17;;;12.30;96.70;;;;;;4848254;29;20053;-78
2021/11/25 09:45:30;;;;;;;4.05;2.83;;;12.30;96.70;;;;;;4867279;29;20095;-78
2021/11/25 09:48:01;;;;;;;4.93;3.08;;;12.40;96.70;;;;;;4866249;29;20172;-78
2021/11/25 09:50:33;;;;;;;5.80;4.13;;;12.40;96.70;;;;;;4850806;29;20049;-78
2021/11/25 09:53:04;;;;;;;6.22;4.15;;;12.30;96.70;;;;;;4854132;29;20101;-79
2021/11/25 09:55:33;;;;;;;5.47;3.97;;;12.40;96.70;;;;;;4864090;29;20061;-80
2021/11/25 09:58:02;;;;;;;4.85;3.60;;;12.40;96.70;;;;;;4857568;29;20037;-79
2021/11/25 10:00:32;;;;;;;6.15;3.95;;;12.40;96.70;;;;;;4850561;29;20044;-79
2021/11/25 10:03:02;;;;;;;5.90;4.28;;;12.40;96.70;;;;;;4835105;29;20053;-79
2021/11/25 10:05:32;;;;;;;4.88;4.05;;;12.40;96.70;;;;;;4860795;29;20122;-78
2021/11/25 10:08:01;;;;;;;4.60;3.70;;;12.40;96.70;;;;;;4849453;29;20055;-79
2021/11/25 10:10:31;;;;;;;5.68;3.75;;;12.50;96.70;;;;;;4856519;29;20435;-79
2021/11/25 10:13:11;;;;;;;4.75;3.13;;;12.50;96.70;;;;;;4853981;29;20049;-78
2021/11/25 10:15:40;;;;;;;5.30;3.50;;;12.50;96.70;;;;;;4833391;29;20044;-79
2021/11/25 10:18:12;;;;;;;4.85;3.83;;;12.50;96.70;;;;;;4845969;29;20610;-79
2021/11/25 10:20:43;;;;;;;5.80;3.60;;;12.50;96.70;;;;;;4866292;29;20516;-79
2021/11/25 10:23:22;;;;;;;5.22;3.53;;;12.50;96.70;;;;;;4847819;29;20076;-78
2021/11/25 10:25:57;;;;;;;6.53;4.95;;;12.50;96.70;;;;;;4851008;29;20080;-80
2021/11/25 10:28:41;;;;;;;6.15;4.25;;;12.60;96.70;;;;;;4855608;29;20282;-78
2021/11/25 10:31:13;;;;;;;8.63;5.88;;;12.60;96.70;;;;;;4862856;29;20407;-78
2021/11/25 10:34:27;;;;;;;7.75;5.50;;;12.60;96.70;;;;;;4854767;29;20552;-78
2021/11/25 10:36:50;;;;;;;5.43;3.97;;;12.70;96.70;;;;;;4864151;29;20057;-78
2021/11/25 10:41:55;;;;;;;6.22;4.38;;;12.80;96.70;;;;;;4882429;29;20068;-79
2021/11/25 10:44:25;;;;;;;7.18;4.25;;;12.80;96.70;;;;;;4889077;29;20485;-77
2021/11/25 10:46:56;;;;;;;7.82;5.05;;;12.80;96.70;;;;;;4873559;29;20045;-78
2021/11/25 10:49:39;;;;;;;9.65;6.03;;;12.80;96.70;;;;;;4892946;29;20079;-79
2021/11/25 10:52:16;;;;;;;6.90;4.68;;;12.80;96.70;;;;;;4890987;29;20056;-80
2021/11/25 10:54:48;;;;;;;6.07;4.60;;;12.90;96.70;;;;;;4895573;29;20057;-79
2021/11/25 10:57:18;;;;;;;10.30;6.63;;;12.90;96.70;;;;;;4874578;29;20068;-79
2021/11/25 10:59:49;;;;;;;7.03;5.53;;;12.90;96.70;;;;;;4871769;29;20131;-77
2021/11/25 11:02:22;;;;;;;6.07;4.47;;;12.90;96.70;;;;;;4871407;29;20159;-78
2021/11/25 11:04:51;;;;;;;5.90;4.55;;;12.90;96.70;;;;;;4886453;29;20052;-77
2021/11/25 11:07:27;;;;;;;5.25;4.57;;;12.90;96.70;;;;;;4871786;29;20407;-79
2021/11/25 11:09:57;;;;;;;5.38;4.78;;;13.00;96.70;;;;;;4864825;29;20397;-79
2021/11/25 11:12:42;;;;;;;4.30;3.90;;;12.90;96.70;;;;;;4871304;29;20048;-79
2021/11/25 11:20:36;;;;;;;4.85;3.83;;;13.00;96.70;;;;;;4890070;29;20055;-79
2021/11/25 11:23:06;;;;;;;5.53;4.68;;;13.20;96.70;;;;;;4871582;29;20857;-79
2021/11/25 11:25:36;;;;;;;6.70;4.50;;;13.30;96.70;;;;;;4883932;29;20041;-79
2021/11/25 11:28:06;;;;;;;8.00;6.57;;;13.40;96.70;;;;;;4870571;29;20783;-79
2021/11/25 11:30:35;;;;;;;6.75;5.70;;;13.40;96.70;;;;;;4889628;29;20059;-79
2021/11/25 11:33:05;;;;;;;6.75;4.82;;;13.50;96.70;;;;;;4873431;29;20047;-79
2021/11/25 11:35:34;;;;;;;5.15;4.18;;;13.50;96.70;;;;;;4872354;29;20044;-79
2021/11/25 11:38:03;;;;;;;4.47;4.05;;;13.50;96.70;;;;;;4871254;29;20542;-80
2021/11/25 11:40:37;;;;;;;5.18;4.07;;;13.50;96.70;;;;;;4888244;29;20069;-80
2021/11/25 11:43:05;;;;;;;5.50;3.83;;;13.50;96.70;;;;;;4871851;29;20521;-80
2021/11/25 11:45:37;;;;;;;4.53;3.58;;;13.60;96.70;;;;;;4885774;29;20115;-79
2021/11/25 11:48:10;;;;;;;6.00;4.28;;;13.60;96.70;;;;;;4871987;29;20084;-79
2021/11/25 11:50:41;;;;;;;5.20;3.90;;;13.70;96.70;;;;;;4869219;29;20062;-79
2021/11/25 11:53:17;;;;;;;4.35;3.50;;;13.70;96.70;;;;;;4867900;29;20047;-78
2021/11/25 11:55:48;;;;;;;4.57;4.00;;;13.70;96.70;;;;;;4891876;29;20084;-79
2021/11/25 11:58:26;;;;;;;4.68;3.67;;;13.70;96.70;;;;;;4882696;29;20143;-79
2021/11/25 12:00:56;;;;;;;4.90;3.35;;;13.80;96.70;;;;;;4870971;29;20861;-76
2021/11/25 12:03:42;;;;;;;3.95;3.25;;;13.90;96.70;;;;;;4883376;29;20096;-79
2021/11/25 12:06:27;;;;;;;4.68;3.50;;;14.00;96.70;;;;;;4872878;29;20344;-80
2021/11/25 12:08:56;;;;;;;5.38;4.10;;;14.10;96.70;;;;;;4852139;29;20144;-79
2021/11/25 12:11:37;;;;;;;4.88;4.30;;;14.20;96.70;;;;;;4873068;29;20045;-78
2021/11/25 12:14:25;;;;;;;4.72;3.35;;;14.40;96.70;;;;;;4874759;29;20048;-79
2021/11/25 12:16:56;;;;;;;4.95;3.47;;;14.40;96.70;;;;;;4885929;29;20546;-79
2021/11/25 12:19:29;;;;;;;4.82;3.25;;;14.40;96.70;;;;;;4884559;29;20503;-79
2021/11/25 12:22:00;;;;;;;3.53;3.20;;;14.30;96.70;;;;;;4882221;29;20048;-78
2021/11/25 12:24:32;;;;;;;4.07;3.20;;;14.20;96.70;;;;;;4879488;29;20209;-79
2021/11/25 12:27:23;;;;;;;6.93;4.25;;;14.10;96.70;;;;;;4882331;29;20044;-79
2021/11/25 12:30:10;;;;;;;5.22;3.97;;;14.10;96.70;;;;;;4872246;29;20591;-79
2021/11/25 12:32:53;;;;;;;4.30;3.50;;;14.00;96.70;;;;;;4872426;29;20048;-78
2021/11/25 12:35:40;;;;;;;3.33;2.92;;;14.00;96.70;;;;;;4890513;29;20162;-79
2021/11/25 12:38:19;;;;;;;4.68;3.55;;;14.00;96.70;;;;;;4874881;29;20049;-79
2021/11/25 12:40:55;;;;;;;4.18;2.92;;;14.00;96.70;;;;;;4877515;29;20056;-79
2021/11/25 12:43:28;;;;;;;5.40;3.17;;;14.00;96.70;;;;;;4873423;29;20056;-80
2021/11/25 12:45:58;;;;;;;4.20;3.33;;;13.90;96.70;;;;;;4870934;29;20692;-78
2021/11/25 12:48:29;;;;;;;5.93;4.45;;;13.90;96.70;;;;;;4894010;29;20494;-80
2021/11/25 12:51:03;;;;;;;11.35;8.43;;;13.80;96.70;;;;;;4872148;29;20653;-78
2021/11/25 12:53:34;;;;;;;15.25;10.35;;;13.80;96.70;;;;;;4891165;29;20048;-78
2021/11/25 12:56:10;;;;;;;11.52;7.20;;;13.70;96.70;;;;;;4886872;29;20132;-80
2021/11/25 12:58:44;;;;;;;6.65;5.10;;;13.70;96.70;;;;;;4869772;29;20431;-80
2021/11/25 13:01:18;;;;;;;11.40;7.63;;;13.70;96.70;;;;;;4887413;29;20071;-79
2021/11/25 13:03:56;;;;;;;7.22;5.43;;;13.60;96.70;;;;;;4875155;29;20080;-80
2021/11/25 13:06:25;;;;;;;5.43;3.45;;;13.60;96.70;;;;;;4887850;29;20124;-79
2021/11/25 13:08:53;;;;;;;3.83;2.95;;;13.60;96.70;;;;;;4873540;29;20048;-78
2021/11/25 13:11:28;;;;;;;4.00;3.50;;;13.70;96.70;;;;;;4890682;29;20040;-79
2021/11/25 13:14:04;;;;;;;3.90;3.50;;;13.70;96.70;;;;;;4870809;29;20041;-78
2021/11/25 13:16:39;;;;;;;3.00;2.70;;;13.70;96.70;;;;;;4887804;29;20041;-78